Upper Wheatfields, Arizona
Current Conditions -  °F | °C
As of 2:53 AM on Saturday 25 Oct 2014 (Local Time) from KRQE Reporting Station
Clear Clear  
Wind Chill: 36°   Ceiling: Unl
Heat Index: 36°   Visibility: 10mi
Dew Point: 25°   Wind: 0mph
Humidity: 64%   Direction: NA
Pressure: 30.38"   Gusts: NA
Location:  36.4446°N, 109.262°W
Report Text: KRQE 250853Z AUTO 00000KT 10SM CLR 02/M04 A3038 RMK AO2 SLP202 T00221039 57001 TSNO
Loading
Personal Weather Stations






























Interactive Weather Map
Tropical Storm Tracking
New forecast layout! Learn more

10-Day Weather Forecast

Advertisements
Track Severe Weather on mobile